createdAt,value
2018-10-12T00:02:20.758Z,234.65
2018-10-12T00:04:49.899Z,225.85
2018-10-12T00:07:18.584Z,223.47
2018-10-12T00:09:48.712Z,252.03
2018-10-12T00:12:18.779Z,228.42
2018-10-12T00:14:47.939Z,238.10
2018-10-12T00:17:16.719Z,226.18
2018-10-12T00:19:46.449Z,226.60
2018-10-12T00:22:15.618Z,236.95
2018-10-12T00:24:44.413Z,229.32
2018-10-12T00:27:14.433Z,218.07
2018-10-12T00:29:43.284Z,228.30
2018-10-12T00:32:12.378Z,216.60
2018-10-12T00:34:41.170Z,224.35
2018-10-12T00:37:10.104Z,223.68
2018-10-12T00:39:38.956Z,238.12
2018-10-12T00:42:07.850Z,218.67
2018-10-12T00:44:36.475Z,230.00
2018-10-12T00:47:05.450Z,226.07
2018-10-12T00:49:34.336Z,244.90
2018-10-12T00:52:03.011Z,270.48
2018-10-12T00:54:32.077Z,246.75
2018-10-12T00:57:00.881Z,227.47
2018-10-12T00:59:29.829Z,274.70
2018-10-12T01:01:58.992Z,330.67
2018-10-12T01:04:28.962Z,218.33
2018-10-12T01:06:57.829Z,219.47
2018-10-12T01:09:26.941Z,219.32
2018-10-12T01:12:00.998Z,223.90
2018-10-12T01:14:30.441Z,223.32
2018-10-12T01:16:59.246Z,214.85
2018-10-12T01:19:27.899Z,232.40
2018-10-12T01:21:57.108Z,232.25
2018-10-12T01:24:26.284Z,236.15
2018-10-12T01:29:49.925Z,391.10
2018-10-12T01:32:23.880Z,241.93
2018-10-12T01:34:53.223Z,234.77
2018-10-12T01:37:22.029Z,235.25
2018-10-12T01:39:51.251Z,223.25
2018-10-12T01:42:20.380Z,227.82
2018-10-12T01:44:50.298Z,311.95
2018-10-12T01:47:19.056Z,293.75
2018-10-12T01:49:48.356Z,239.97
2018-10-12T01:52:17.231Z,338.55
2018-10-12T01:54:46.279Z,223.75
2018-10-12T01:57:15.096Z,231.57
2018-10-12T01:59:43.983Z,234.03
2018-10-12T02:02:12.736Z,229.35
2018-10-12T02:04:41.735Z,258.95
2018-10-12T02:07:10.910Z,240.15
2018-10-12T02:09:39.726Z,234.45
2018-10-12T02:12:08.521Z,220.22
2018-10-12T02:14:37.264Z,227.85
2018-10-12T02:17:05.976Z,236.18
2018-10-12T02:19:34.828Z,228.15
2018-10-12T02:22:03.711Z,347.70
2018-10-12T02:24:32.563Z,225.35
2018-10-12T02:27:02.260Z,222.35
2018-10-12T02:29:31.115Z,225.15
2018-10-12T02:32:00.371Z,222.40
2018-10-12T02:34:30.340Z,220.88
2018-10-12T02:36:59.570Z,241.75
2018-10-12T02:39:28.603Z,225.93
2018-10-12T02:41:57.384Z,234.00
2018-10-12T02:44:26.171Z,237.82
2018-10-12T02:46:55.002Z,232.57
2018-10-12T02:49:24.265Z,239.10
2018-10-12T02:51:53.152Z,231.35
2018-10-12T02:54:22.144Z,236.85
2018-10-12T02:56:50.846Z,234.30
2018-10-12T02:59:19.519Z,243.75
2018-10-12T03:01:48.680Z,249.18
2018-10-12T03:04:17.432Z,254.63
2018-10-12T03:06:46.325Z,238.50
2018-10-12T03:09:15.906Z,244.22
2018-10-12T03:11:44.649Z,253.12
2018-10-12T03:14:13.360Z,264.27
2018-10-12T03:16:42.398Z,248.38
2018-10-12T03:19:10.914Z,235.13
2018-10-12T03:21:40.412Z,232.40
2018-10-12T03:24:09.604Z,232.90
2018-10-12T03:26:38.327Z,233.30
2018-10-12T03:29:07.255Z,220.78
2018-10-12T03:31:35.946Z,237.27
2018-10-12T03:34:04.517Z,237.15
2018-10-12T03:36:33.278Z,249.37
2018-10-12T03:39:02.069Z,235.50
2018-10-12T03:41:31.169Z,235.00
2018-10-12T03:43:59.853Z,229.30
2018-10-12T03:46:28.928Z,245.65
2018-10-12T03:48:57.745Z,245.70
2018-10-12T03:51:26.851Z,245.00
2018-10-12T03:53:55.584Z,241.08
2018-10-12T03:56:25.920Z,243.97
2018-10-12T03:58:54.687Z,253.20
2018-10-12T04:01:23.637Z,257.20
2018-10-12T04:03:52.494Z,235.40
2018-10-12T04:06:21.731Z,250.50
2018-10-12T04:08:50.585Z,244.47
2018-10-12T04:11:19.557Z,244.62
2018-10-12T04:13:49.571Z,234.10
2018-10-12T04:16:18.838Z,227.18
2018-10-12T04:18:47.829Z,237.45
2018-10-12T04:21:16.546Z,243.40
2018-10-12T04:23:45.368Z,235.05
2018-10-12T04:26:14.143Z,234.27
2018-10-12T04:28:43.403Z,232.55
2018-10-12T04:31:12.025Z,239.25
2018-10-12T04:33:40.587Z,252.00
2018-10-12T04:36:09.194Z,242.75
2018-10-12T04:39:48.270Z,271.62
2018-10-12T04:42:17.228Z,296.35
2018-10-12T04:44:46.029Z,289.38
2018-10-12T04:47:15.382Z,336.92
2018-10-12T04:49:44.116Z,240.07
2018-10-12T04:52:12.829Z,241.70
2018-10-12T04:54:41.765Z,258.93
2018-10-12T04:57:25.190Z,250.68
2018-10-12T04:59:53.821Z,255.25
2018-10-12T05:02:22.399Z,267.50
2018-10-12T05:04:50.959Z,243.78
2018-10-12T05:07:19.961Z,239.38
2018-10-12T05:09:49.401Z,239.25
2018-10-12T05:12:18.982Z,237.17
2018-10-12T05:14:49.369Z,255.52
2018-10-12T05:17:18.171Z,251.85
2018-10-12T05:19:47.223Z,235.57
2018-10-12T05:22:17.465Z,231.02
2018-10-12T05:24:46.752Z,236.77
2018-10-12T05:27:16.270Z,242.00
2018-10-12T05:29:51.469Z,252.62
2018-10-12T05:32:21.255Z,243.55
2018-10-12T05:34:50.905Z,234.70
2018-10-12T05:37:20.164Z,236.85
2018-10-12T05:39:49.192Z,236.57
2018-10-12T05:42:17.829Z,249.50
2018-10-12T05:44:46.519Z,251.07
2018-10-12T05:47:15.225Z,293.77
2018-10-12T05:50:05.003Z,252.13
2018-10-12T05:52:34.004Z,247.20
2018-10-12T05:55:04.280Z,249.77
2018-10-12T05:57:36.533Z,266.40
2018-10-12T06:00:06.493Z,254.47
2018-10-12T06:02:35.801Z,249.60
2018-10-12T06:05:05.066Z,264.52
2018-10-12T06:07:34.751Z,260.63
2018-10-12T06:10:03.569Z,245.25
2018-10-12T06:12:32.880Z,270.77
2018-10-12T06:15:01.818Z,250.68
2018-10-12T06:17:33.632Z,259.73
2018-10-12T06:20:02.291Z,242.90
2018-10-12T06:22:31.107Z,308.68
2018-10-12T06:25:00.214Z,254.93
2018-10-12T06:27:29.540Z,293.65
2018-10-12T06:29:58.197Z,324.10
2018-10-12T06:35:17.062Z,294.18
2018-10-12T06:37:45.914Z,338.50
2018-10-12T06:40:14.747Z,280.92
2018-10-12T06:42:43.780Z,314.15
2018-10-12T06:45:12.440Z,309.23
2018-10-12T06:47:41.078Z,309.12
2018-10-12T06:50:13.539Z,363.57
2018-10-12T06:52:42.598Z,342.75
2018-10-12T06:55:11.216Z,374.23
2018-10-12T06:57:39.961Z,375.27
2018-10-12T07:00:08.773Z,323.40
2018-10-12T07:02:37.504Z,378.62
2018-10-12T07:05:06.297Z,316.12
2018-10-12T07:07:35.668Z,377.40
2018-10-12T07:10:07.082Z,329.27
2018-10-12T07:12:36.256Z,348.25
2018-10-12T07:15:05.087Z,332.75
2018-10-12T07:17:34.231Z,348.50
2018-10-12T07:20:03.091Z,325.82
2018-10-12T07:22:31.973Z,289.20
2018-10-12T07:25:00.913Z,297.80
2018-10-12T07:27:30.261Z,299.42
2018-10-12T07:29:59.418Z,269.85
2018-10-12T07:32:28.701Z,279.20
2018-10-12T07:34:59.213Z,264.17
2018-10-12T07:37:28.063Z,266.63
2018-10-12T07:39:56.834Z,265.27
2018-10-12T07:42:25.606Z,274.45
2018-10-12T07:44:54.475Z,284.27
2018-10-12T07:47:25.687Z,318.50
2018-10-12T07:49:58.417Z,372.63
2018-10-12T07:52:30.231Z,396.25
2018-10-12T07:54:59.631Z,403.18
2018-10-12T07:57:30.190Z,449.85
2018-10-12T08:00:01.718Z,449.92
2018-10-12T08:02:30.750Z,423.47
2018-10-12T08:05:01.015Z,459.83
2018-10-12T08:07:33.816Z,537.05
2018-10-12T08:10:03.872Z,437.88
2018-10-12T08:12:32.578Z,510.75
2018-10-12T08:15:02.669Z,480.15
2018-10-12T08:17:32.609Z,580.87
2018-10-12T08:20:01.502Z,509.77
2018-10-12T08:22:31.337Z,720.10
2018-10-12T08:25:00.392Z,502.67
2018-10-12T08:27:29.139Z,421.90
2018-10-12T08:29:59.341Z,553.90
2018-10-12T08:32:28.502Z,632.98
2018-10-12T08:34:57.464Z,645.65
2018-10-12T08:37:26.429Z,674.65
2018-10-12T08:39:55.188Z,857.87
2018-10-12T08:42:24.729Z,657.00
2018-10-12T08:44:54.151Z,642.65
2018-10-12T08:47:23.822Z,717.58
2018-10-12T08:49:53.498Z,754.98
2018-10-12T08:52:23.228Z,751.50
2018-10-12T08:54:53.930Z,701.73
2018-10-12T08:57:23.303Z,915.02
2018-10-12T08:59:52.125Z,784.60
2018-10-12T09:02:20.865Z,670.67
2018-10-12T09:04:50.415Z,757.42
2018-10-12T09:07:19.913Z,958.65
2018-10-12T09:09:50.097Z,722.48
2018-10-12T09:12:18.878Z,952.25
2018-10-12T09:14:48.853Z,559.92
2018-10-12T09:17:18.971Z,902.60
2018-10-12T09:19:51.542Z,612.80
2018-10-12T09:22:22.135Z,908.50
2018-10-12T09:24:53.620Z,999.90
2018-10-12T09:27:24.253Z,915.65
2018-10-12T09:29:54.702Z,894.75
2018-10-12T09:32:24.181Z,897.20
2018-10-12T09:34:53.200Z,999.90
2018-10-12T09:37:24.112Z,918.05
2018-10-12T09:39:53.980Z,946.30
2018-10-12T09:42:23.086Z,999.90
2018-10-12T09:44:52.771Z,956.20
2018-10-12T09:47:22.449Z,896.80
2018-10-12T09:49:51.482Z,999.90
2018-10-12T09:52:21.819Z,811.63
2018-10-12T09:54:52.433Z,786.02
2018-10-12T09:57:32.194Z,810.30
2018-10-12T10:00:02.422Z,822.93
2018-10-12T10:02:36.182Z,839.27
2018-10-12T10:05:08.533Z,817.60
2018-10-12T10:07:40.083Z,940.32
2018-10-12T10:10:11.342Z,999.90
2018-10-12T10:12:43.000Z,999.90
2018-10-12T10:15:12.948Z,999.90
2018-10-12T10:17:43.703Z,976.22
2018-10-12T10:20:13.859Z,999.90
2018-10-12T10:22:48.300Z,999.90
2018-10-12T10:25:17.143Z,999.90
2018-10-12T10:27:46.555Z,999.90
2018-10-12T10:30:19.817Z,999.90
2018-10-12T10:32:51.244Z,999.90
2018-10-12T10:35:20.987Z,999.90
2018-10-12T10:37:51.676Z,999.90
2018-10-12T10:40:21.155Z,975.92
2018-10-12T10:42:50.615Z,999.90
2018-10-12T10:45:19.914Z,999.60
2018-10-12T10:48:02.876Z,944.97
2018-10-12T10:50:33.345Z,999.42
2018-10-12T10:53:19.248Z,999.90
2018-10-12T10:56:15.618Z,999.90
2018-10-12T10:59:18.456Z,999.90
2018-10-12T11:02:15.205Z,999.90
2018-10-12T11:04:54.156Z,999.90
2018-10-12T11:07:24.082Z,999.90
2018-10-12T11:09:52.975Z,999.90
2018-10-12T11:12:23.374Z,999.90
2018-10-12T11:14:52.748Z,999.90
2018-10-12T11:17:22.824Z,999.90
2018-10-12T11:19:57.858Z,999.90
2018-10-12T11:22:27.864Z,999.90
2018-10-12T11:24:56.997Z,999.90
2018-10-12T11:27:25.701Z,991.68
2018-10-12T11:29:54.219Z,955.52
2018-10-12T11:32:22.815Z,984.52
2018-10-12T11:34:51.564Z,866.95
2018-10-12T11:37:21.264Z,958.40
2018-10-12T11:39:50.432Z,999.90
2018-10-12T11:42:20.840Z,999.90
2018-10-12T11:44:50.657Z,999.90
2018-10-12T11:47:20.012Z,999.90
2018-10-12T11:49:49.731Z,999.90
2018-10-12T11:52:18.579Z,999.90
2018-10-12T11:54:47.122Z,999.90
2018-10-12T11:57:16.428Z,999.90
2018-10-12T11:59:45.506Z,999.90
2018-10-12T12:02:15.044Z,999.90
2018-10-12T12:04:44.177Z,999.90
2018-10-12T12:07:13.346Z,999.90
2018-10-12T12:09:42.124Z,999.90
2018-10-12T12:12:11.297Z,999.90
2018-10-12T12:14:40.056Z,999.90
2018-10-12T12:17:08.756Z,999.90
2018-10-12T12:19:37.915Z,989.70
2018-10-12T12:22:07.375Z,984.35
2018-10-12T12:24:36.244Z,999.90
2018-10-12T12:27:06.111Z,957.27
2018-10-12T12:29:37.528Z,926.82
2018-10-12T12:32:07.684Z,951.50
2018-10-12T12:34:38.220Z,925.07
2018-10-12T12:37:10.555Z,861.48
2018-10-12T12:39:44.610Z,950.28
2018-10-12T12:42:14.286Z,860.58
2018-10-12T12:44:44.466Z,959.83
2018-10-12T12:47:13.932Z,986.28
2018-10-12T12:49:52.101Z,964.63
2018-10-12T12:52:30.252Z,965.08
2018-10-12T12:55:08.107Z,938.48
2018-10-12T12:57:37.555Z,870.03
2018-10-12T13:00:06.329Z,904.03
2018-10-12T13:02:36.321Z,880.45
2018-10-12T13:05:05.698Z,882.83
2018-10-12T13:07:37.210Z,838.85
2018-10-12T13:10:06.500Z,786.88
2018-10-12T13:12:35.904Z,752.70
2018-10-12T13:15:04.558Z,807.75
2018-10-12T13:17:33.848Z,825.60
2018-10-12T13:20:03.242Z,749.95
2018-10-12T13:22:32.274Z,726.85
2018-10-12T13:25:00.976Z,741.70
2018-10-12T13:27:29.986Z,819.52
2018-10-12T13:29:59.144Z,867.17
2018-10-12T13:32:28.264Z,915.45
2018-10-12T13:34:59.813Z,966.95
2018-10-12T13:37:29.396Z,999.90
2018-10-12T13:39:59.267Z,999.90
2018-10-12T13:42:28.852Z,999.90
2018-10-12T13:44:58.041Z,999.90
2018-10-12T13:47:27.404Z,999.90
2018-10-12T13:49:56.370Z,999.90
2018-10-12T13:52:25.474Z,999.90
2018-10-12T13:54:55.875Z,999.90
2018-10-12T13:57:26.946Z,999.90
2018-10-12T13:59:56.001Z,999.90
2018-10-12T14:02:27.248Z,999.90
2018-10-12T14:04:56.397Z,999.90
2018-10-12T14:07:25.708Z,999.90
2018-10-12T14:09:55.253Z,999.90
2018-10-12T14:12:25.653Z,999.90
2018-10-12T14:14:54.782Z,999.90
2018-10-12T14:17:24.305Z,999.90
2018-10-12T14:19:54.019Z,999.90
2018-10-12T14:22:23.659Z,999.90
2018-10-12T14:24:52.907Z,999.90
2018-10-12T14:27:21.809Z,999.90
2018-10-12T14:29:52.742Z,999.90
2018-10-12T14:32:22.439Z,999.90
2018-10-12T14:34:52.109Z,999.90
2018-10-12T14:37:23.331Z,999.90
2018-10-12T14:39:53.497Z,999.90
2018-10-12T14:42:25.159Z,999.90
2018-10-12T14:44:55.356Z,999.90
2018-10-12T14:47:27.449Z,999.90
2018-10-12T14:49:58.019Z,999.90
2018-10-12T14:52:29.327Z,999.90
2018-10-12T14:55:03.560Z,999.90
2018-10-12T14:57:39.197Z,999.90
2018-10-12T15:00:12.241Z,999.90
2018-10-12T15:02:52.572Z,999.90
2018-10-12T15:05:23.267Z,999.90
2018-10-12T15:07:53.614Z,999.90
2018-10-12T15:10:24.235Z,999.90
2018-10-12T15:12:55.494Z,999.90
2018-10-12T15:15:31.115Z,999.90
2018-10-12T15:18:01.034Z,999.90
2018-10-12T15:20:33.151Z,999.90
2018-10-12T15:23:02.096Z,999.90
2018-10-12T15:25:33.460Z,999.90
2018-10-12T15:28:03.581Z,999.90
2018-10-12T15:30:32.359Z,999.90
2018-10-12T15:33:01.520Z,999.90
2018-10-12T15:35:30.821Z,999.90
2018-10-12T15:38:00.312Z,999.90
2018-10-12T15:40:29.479Z,999.90
2018-10-12T15:42:58.330Z,999.90
2018-10-12T15:45:27.410Z,999.90
2018-10-12T15:47:56.501Z,999.90
2018-10-12T15:50:25.903Z,999.90
2018-10-12T15:52:55.240Z,985.05
2018-10-12T15:55:25.030Z,956.40
2018-10-12T15:57:53.876Z,914.02
2018-10-12T16:00:23.052Z,874.05
2018-10-12T16:02:52.325Z,921.35
2018-10-12T16:05:22.453Z,853.77
2018-10-12T16:07:52.409Z,893.43
2018-10-12T16:10:21.973Z,783.87
2018-10-12T16:12:51.223Z,888.98
2018-10-12T16:15:22.267Z,854.52
2018-10-12T16:17:53.093Z,805.10
2018-10-12T16:20:23.488Z,786.38
2018-10-12T16:22:53.949Z,790.47
2018-10-12T16:26:01.257Z,876.60
2018-10-12T16:28:30.449Z,859.92
2018-10-12T16:30:59.945Z,742.30
2018-10-12T16:33:30.306Z,798.45
2018-10-12T16:36:01.746Z,699.52
2018-10-12T16:38:31.125Z,861.05
2018-10-12T16:40:59.773Z,583.02
2018-10-12T16:43:30.014Z,624.10
2018-10-12T16:45:59.108Z,570.88
2018-10-12T16:48:28.035Z,705.77
2018-10-12T16:50:57.677Z,671.77
2018-10-12T16:53:26.515Z,630.58
2018-10-12T16:55:58.796Z,636.52
2018-10-12T16:58:28.812Z,562.50
2018-10-12T17:00:57.888Z,557.98
2018-10-12T17:03:27.646Z,526.10
2018-10-12T17:05:56.614Z,561.55
2018-10-12T17:08:27.119Z,638.50
2018-10-12T17:10:58.353Z,703.45
2018-10-12T17:13:28.108Z,704.77
2018-10-12T17:15:57.194Z,620.33
2018-10-12T17:18:26.203Z,591.08
2018-10-12T17:20:55.488Z,570.52
2018-10-12T17:23:32.726Z,623.75
2018-10-12T17:26:01.844Z,597.98
2018-10-12T17:28:31.200Z,526.92
2018-10-12T17:31:00.123Z,455.33
2018-10-12T17:33:28.985Z,494.58
2018-10-12T17:35:57.825Z,477.00
2018-10-12T17:38:26.789Z,465.15
2018-10-12T17:40:55.731Z,475.87
2018-10-12T17:43:25.656Z,442.27
2018-10-12T17:45:55.463Z,426.07
2018-10-12T17:48:26.895Z,461.23
2018-10-12T17:50:57.392Z,412.70
2018-10-12T17:53:27.518Z,414.60
2018-10-12T17:55:56.908Z,417.57
2018-10-12T17:58:26.603Z,437.60
2018-10-12T18:00:57.006Z,396.20
2018-10-12T18:03:26.618Z,395.88
2018-10-12T18:05:56.130Z,442.12
2018-10-12T18:08:26.113Z,431.15
2018-10-12T18:10:58.577Z,417.90
2018-10-12T18:13:29.300Z,385.10
2018-10-12T18:15:58.806Z,385.73
2018-10-12T18:18:30.386Z,383.77
2018-10-12T18:21:00.266Z,367.35
2018-10-12T18:23:30.209Z,358.90
2018-10-12T18:26:02.491Z,370.35
2018-10-12T18:28:31.832Z,360.68
2018-10-12T18:31:04.642Z,371.95
2018-10-12T18:33:34.800Z,345.67
2018-10-12T18:36:08.920Z,400.87
2018-10-12T18:38:39.652Z,306.60
2018-10-12T18:41:09.313Z,336.43
2018-10-12T18:43:38.240Z,333.70
2018-10-12T18:46:08.061Z,332.50
2018-10-12T18:48:37.451Z,383.27
2018-10-12T18:51:07.093Z,370.55
2018-10-12T18:53:36.258Z,353.10
2018-10-12T18:56:05.247Z,320.40
2018-10-12T18:58:35.168Z,327.32
2018-10-12T19:01:04.524Z,388.93
2018-10-12T19:03:33.882Z,351.60
2018-10-12T19:06:03.297Z,357.90
2018-10-12T19:08:32.580Z,370.23
2018-10-12T19:11:01.710Z,315.20
2018-10-12T19:13:30.544Z,352.30
2018-10-12T19:15:59.597Z,343.82
2018-10-12T19:18:28.672Z,350.75
2018-10-12T19:20:58.338Z,345.95
2018-10-12T19:23:28.105Z,340.50
2018-10-12T19:25:58.162Z,326.88
2018-10-12T19:28:28.126Z,296.63
2018-10-12T19:30:59.247Z,333.25
2018-10-12T19:33:28.203Z,331.65
2018-10-12T19:35:59.809Z,312.12
2018-10-12T19:38:29.714Z,269.77
2018-10-12T19:41:00.822Z,294.93
2018-10-12T19:43:30.963Z,358.38
2018-10-12T19:46:00.722Z,402.30
2018-10-12T19:48:31.880Z,317.82
2018-10-12T19:51:03.704Z,352.05
2018-10-12T19:53:34.232Z,299.95
2018-10-12T19:56:03.301Z,333.80
2018-10-12T19:58:34.464Z,332.12
2018-10-12T20:01:06.421Z,328.83
2018-10-12T20:03:36.392Z,310.43
2018-10-12T20:06:05.899Z,311.40
2018-10-12T20:08:35.090Z,319.45
2018-10-12T20:11:04.590Z,337.48
2018-10-12T20:13:34.885Z,322.12
2018-10-12T20:16:07.337Z,385.65
2018-10-12T20:18:36.868Z,371.23
2018-10-12T20:21:11.321Z,343.12
2018-10-12T20:23:40.496Z,327.25
2018-10-12T20:26:13.950Z,321.95
2018-10-12T20:28:43.361Z,282.37
2018-10-12T20:31:13.061Z,306.65
2018-10-12T20:33:41.725Z,296.02
2018-10-12T20:36:10.689Z,286.70
2018-10-12T20:38:41.363Z,292.37
2018-10-12T20:41:10.728Z,276.15
2018-10-12T20:43:39.644Z,280.77
2018-10-12T20:46:09.089Z,274.82
2018-10-12T20:48:37.865Z,298.55
2018-10-12T20:51:06.826Z,288.93
2018-10-12T20:53:35.964Z,354.40
2018-10-12T20:56:04.854Z,320.35
2018-10-12T20:58:33.760Z,325.68
2018-10-12T21:01:02.818Z,301.80
2018-10-12T21:03:31.471Z,274.82
2018-10-12T21:06:00.313Z,275.38
2018-10-12T21:08:29.031Z,279.70
2018-10-12T21:10:58.723Z,250.80
2018-10-12T21:13:27.821Z,283.30
2018-10-12T21:15:58.132Z,299.27
2018-10-12T21:18:27.050Z,277.35
2018-10-12T21:20:58.138Z,274.82
2018-10-12T21:23:27.420Z,281.13
2018-10-12T21:25:56.945Z,295.15
2018-10-12T21:28:26.592Z,325.70
2018-10-12T21:30:55.707Z,287.48
2018-10-12T21:33:25.704Z,267.45
2018-10-12T21:35:54.800Z,264.80
2018-10-12T21:38:24.914Z,259.23
2018-10-12T21:40:55.220Z,253.50
2018-10-12T21:43:24.408Z,268.55
2018-10-12T21:45:53.492Z,282.45
2018-10-12T21:48:22.729Z,314.55
2018-10-12T21:50:51.870Z,299.67
2018-10-12T21:53:21.297Z,290.52
2018-10-12T21:55:50.628Z,284.52
2018-10-12T21:58:20.422Z,333.68
2018-10-12T22:00:54.632Z,299.70
2018-10-12T22:03:23.358Z,323.40
2018-10-12T22:05:52.096Z,335.77
2018-10-12T22:11:06.102Z,260.57
2018-10-12T22:13:35.353Z,308.52
2018-10-12T22:16:03.994Z,313.20
2018-10-12T22:18:32.751Z,299.67
2018-10-12T22:21:01.767Z,355.32
2018-10-12T22:23:30.651Z,307.48
2018-10-12T22:25:59.637Z,288.75
2018-10-12T22:28:28.374Z,248.32
2018-10-12T22:30:56.924Z,266.82
2018-10-12T22:33:25.795Z,273.32
2018-10-12T22:35:54.770Z,245.63
2018-10-12T22:38:23.761Z,255.43
2018-10-12T22:40:52.375Z,228.20
2018-10-12T22:43:21.681Z,238.12
2018-10-12T22:45:50.468Z,251.12
2018-10-12T22:48:20.080Z,241.70
2018-10-12T22:50:48.768Z,231.60
2018-10-12T22:53:17.658Z,258.75
2018-10-12T22:55:46.420Z,228.67
2018-10-12T22:58:16.091Z,247.48
2018-10-12T23:00:44.887Z,238.22
2018-10-12T23:03:13.598Z,261.60
2018-10-12T23:05:42.678Z,242.45
2018-10-12T23:08:11.427Z,248.38
2018-10-12T23:10:40.125Z,230.40
2018-10-12T23:13:08.945Z,229.32
2018-10-12T23:15:37.675Z,244.05
2018-10-12T23:18:06.435Z,229.18
2018-10-12T23:20:35.854Z,245.12
2018-10-12T23:23:04.527Z,239.08
2018-10-12T23:25:33.158Z,244.47
2018-10-12T23:28:01.910Z,235.20
2018-10-12T23:30:30.666Z,247.05
2018-10-12T23:33:04.788Z,241.73
2018-10-12T23:35:33.479Z,244.35
2018-10-12T23:38:02.230Z,240.00
2018-10-12T23:40:31.838Z,256.32
2018-10-12T23:43:01.053Z,268.80
2018-10-12T23:45:29.731Z,226.58
2018-10-12T23:47:58.508Z,277.57
2018-10-12T23:50:27.381Z,254.63
2018-10-12T23:52:56.097Z,241.02
2018-10-12T23:55:24.700Z,246.43
2018-10-12T23:57:53.319Z,257.80
